Schedule Details


Flight Number: CTN367
Departure: Alexander The Great (LWSK) at 05:45
Arrival: Franjo Tudman (LDZA) at 07:05
Route: GOSTI P92 MAVAR UY400 RETRA UL604 BOSNA UL608 KOMAR L187 TEBLI

Weather Information
LWSK 081300Z 24004KT 180V340 CAVOK 19/M03 Q1023 NOSIG
LDZA 081300Z VRB02KT CAVOK 20/M04 Q1026 NOSIG
Schedule Frequency

Route Map